sensor_id;sensor_type;location;lat;lon;timestamp;P1;durP1;ratioP1;P2;durP2;ratioP2
40669;SDS011;26355;45.528;9.234;2023-04-03T00:01:06;19.70;;;8.30;;
40669;SDS011;26355;45.528;9.234;2023-04-03T00:03:32;18.88;;;8.48;;
40669;SDS011;26355;45.528;9.234;2023-04-03T00:05:58;18.25;;;8.93;;
40669;SDS011;26355;45.528;9.234;2023-04-03T00:08:24;18.88;;;8.13;;
40669;SDS011;26355;45.528;9.234;2023-04-03T00:10:50;17.92;;;8.82;;
40669;SDS011;26355;45.528;9.234;2023-04-03T00:13:15;22.20;;;9.27;;
40669;SDS011;26355;45.528;9.234;2023-04-03T00:15:41;17.95;;;8.10;;
40669;SDS011;26355;45.528;9.234;2023-04-03T00:18:07;20.10;;;8.70;;
40669;SDS011;26355;45.528;9.234;2023-04-03T00:20:33;18.58;;;8.23;;
40669;SDS011;26355;45.528;9.234;2023-04-03T00:22:59;17.73;;;8.27;;
40669;SDS011;26355;45.528;9.234;2023-04-03T00:25:26;20.60;;;9.35;;
40669;SDS011;26355;45.528;9.234;2023-04-03T00:27:52;21.30;;;8.68;;
40669;SDS011;26355;45.528;9.234;2023-04-03T00:30:18;19.27;;;8.38;;
40669;SDS011;26355;45.528;9.234;2023-04-03T00:32:47;19.20;;;8.10;;
40669;SDS011;26355;45.528;9.234;2023-04-03T00:35:13;18.33;;;8.32;;
40669;SDS011;26355;45.528;9.234;2023-04-03T00:37:41;18.52;;;8.70;;
40669;SDS011;26355;45.528;9.234;2023-04-03T00:40:07;18.63;;;8.45;;
40669;SDS011;26355;45.528;9.234;2023-04-03T00:42:33;21.80;;;9.00;;
40669;SDS011;26355;45.528;9.234;2023-04-03T00:47:25;19.63;;;7.97;;
40669;SDS011;26355;45.528;9.234;2023-04-03T00:49:52;19.10;;;8.35;;
40669;SDS011;26355;45.528;9.234;2023-04-03T00:52:19;17.73;;;7.90;;
40669;SDS011;26355;45.528;9.234;2023-04-03T00:54:48;18.00;;;7.88;;
40669;SDS011;26355;45.528;9.234;2023-04-03T00:57:16;19.13;;;7.63;;
40669;SDS011;26355;45.528;9.234;2023-04-03T00:59:43;16.98;;;7.50;;
40669;SDS011;26355;45.528;9.234;2023-04-03T01:02:13;17.10;;;7.88;;
40669;SDS011;26355;45.528;9.234;2023-04-03T01:04:40;17.50;;;8.45;;
40669;SDS011;26355;45.528;9.234;2023-04-03T01:07:08;20.38;;;7.47;;
40669;SDS011;26355;45.528;9.234;2023-04-03T01:09:40;18.20;;;7.00;;
40669;SDS011;26355;45.528;9.234;2023-04-03T01:12:22;17.58;;;7.10;;
40669;SDS011;26355;45.528;9.234;2023-04-03T01:14:53;18.75;;;6.75;;
40669;SDS011;26355;45.528;9.234;2023-04-03T01:17:35;17.80;;;7.38;;
40669;SDS011;26355;45.528;9.234;2023-04-03T01:25:54;16.35;;;6.30;;
40669;SDS011;26355;45.528;9.234;2023-04-03T01:28:25;18.05;;;6.82;;
40669;SDS011;26355;45.528;9.234;2023-04-03T01:33:40;18.13;;;6.93;;
40669;SDS011;26355;45.528;9.234;2023-04-03T01:36:06;19.50;;;6.88;;
40669;SDS011;26355;45.528;9.234;2023-04-03T01:38:33;16.65;;;6.47;;
40669;SDS011;26355;45.528;9.234;2023-04-03T01:40:59;17.08;;;6.82;;
40669;SDS011;26355;45.528;9.234;2023-04-03T01:43:25;19.58;;;6.80;;
40669;SDS011;26355;45.528;9.234;2023-04-03T01:45:50;16.77;;;6.57;;
40669;SDS011;26355;45.528;9.234;2023-04-03T01:48:17;17.73;;;6.97;;
40669;SDS011;26355;45.528;9.234;2023-04-03T01:50:43;17.77;;;7.38;;
40669;SDS011;26355;45.528;9.234;2023-04-03T01:53:08;15.98;;;6.18;;
40669;SDS011;26355;45.528;9.234;2023-04-03T01:55:34;17.40;;;7.07;;
40669;SDS011;26355;45.528;9.234;2023-04-03T01:58:00;16.90;;;6.90;;
40669;SDS011;26355;45.528;9.234;2023-04-03T02:00:25;17.77;;;7.32;;
40669;SDS011;26355;45.528;9.234;2023-04-03T02:02:51;18.17;;;7.35;;
40669;SDS011;26355;45.528;9.234;2023-04-03T02:05:17;17.27;;;6.90;;
40669;SDS011;26355;45.528;9.234;2023-04-03T02:07:43;17.13;;;6.60;;
40669;SDS011;26355;45.528;9.234;2023-04-03T02:10:09;16.60;;;7.07;;
40669;SDS011;26355;45.528;9.234;2023-04-03T02:12:35;18.55;;;6.95;;
40669;SDS011;26355;45.528;9.234;2023-04-03T02:15:00;15.95;;;6.60;;
40669;SDS011;26355;45.528;9.234;2023-04-03T02:17:26;16.73;;;6.95;;
40669;SDS011;26355;45.528;9.234;2023-04-03T02:19:51;18.25;;;6.55;;
40669;SDS011;26355;45.528;9.234;2023-04-03T02:22:17;16.40;;;6.63;;
40669;SDS011;26355;45.528;9.234;2023-04-03T02:24:43;16.70;;;6.80;;
40669;SDS011;26355;45.528;9.234;2023-04-03T02:27:09;17.08;;;7.55;;
40669;SDS011;26355;45.528;9.234;2023-04-03T02:29:35;18.27;;;6.95;;
40669;SDS011;26355;45.528;9.234;2023-04-03T02:32:00;17.83;;;7.72;;
40669;SDS011;26355;45.528;9.234;2023-04-03T02:34:26;18.90;;;7.00;;
40669;SDS011;26355;45.528;9.234;2023-04-03T02:36:53;17.17;;;7.18;;
40669;SDS011;26355;45.528;9.234;2023-04-03T02:42:03;16.38;;;7.05;;
40669;SDS011;26355;45.528;9.234;2023-04-03T02:44:29;19.88;;;7.47;;
40669;SDS011;26355;45.528;9.234;2023-04-03T02:46:54;17.02;;;7.47;;
40669;SDS011;26355;45.528;9.234;2023-04-03T02:49:20;17.67;;;6.82;;
40669;SDS011;26355;45.528;9.234;2023-04-03T02:51:46;18.10;;;7.57;;
40669;SDS011;26355;45.528;9.234;2023-04-03T02:54:12;18.45;;;7.25;;
40669;SDS011;26355;45.528;9.234;2023-04-03T02:56:38;17.73;;;7.28;;
40669;SDS011;26355;45.528;9.234;2023-04-03T02:59:04;17.50;;;7.05;;
40669;SDS011;26355;45.528;9.234;2023-04-03T03:01:30;18.33;;;7.75;;
40669;SDS011;26355;45.528;9.234;2023-04-03T03:03:57;18.30;;;7.55;;
40669;SDS011;26355;45.528;9.234;2023-04-03T03:06:24;18.10;;;8.02;;
40669;SDS011;26355;45.528;9.234;2023-04-03T03:08:49;19.20;;;7.95;;
40669;SDS011;26355;45.528;9.234;2023-04-03T03:11:15;17.83;;;7.90;;
40669;SDS011;26355;45.528;9.234;2023-04-03T03:13:41;18.25;;;8.50;;
40669;SDS011;26355;45.528;9.234;2023-04-03T03:16:07;20.58;;;8.20;;
40669;SDS011;26355;45.528;9.234;2023-04-03T03:18:33;19.20;;;8.45;;
40669;SDS011;26355;45.528;9.234;2023-04-03T03:20:59;18.83;;;8.20;;
40669;SDS011;26355;45.528;9.234;2023-04-03T03:23:27;17.60;;;8.02;;
40669;SDS011;26355;45.528;9.234;2023-04-03T03:25:57;18.70;;;8.15;;
40669;SDS011;26355;45.528;9.234;2023-04-03T03:28:24;17.63;;;8.43;;
40669;SDS011;26355;45.528;9.234;2023-04-03T03:30:50;21.65;;;7.93;;
40669;SDS011;26355;45.528;9.234;2023-04-03T03:33:16;19.17;;;9.07;;
40669;SDS011;26355;45.528;9.234;2023-04-03T03:35:43;18.30;;;8.23;;
40669;SDS011;26355;45.528;9.234;2023-04-03T03:38:09;19.98;;;8.55;;
40669;SDS011;26355;45.528;9.234;2023-04-03T03:40:35;19.15;;;8.38;;
40669;SDS011;26355;45.528;9.234;2023-04-03T03:43:00;19.23;;;8.13;;
40669;SDS011;26355;45.528;9.234;2023-04-03T03:45:26;20.45;;;8.52;;
40669;SDS011;26355;45.528;9.234;2023-04-03T03:47:51;21.20;;;8.55;;
40669;SDS011;26355;45.528;9.234;2023-04-03T03:50:17;18.15;;;8.50;;
40669;SDS011;26355;45.528;9.234;2023-04-03T03:52:43;18.60;;;8.75;;
40669;SDS011;26355;45.528;9.234;2023-04-03T03:55:09;18.67;;;8.55;;
40669;SDS011;26355;45.528;9.234;2023-04-03T03:57:35;18.60;;;8.35;;
40669;SDS011;26355;45.528;9.234;2023-04-03T04:00:01;18.50;;;8.70;;
40669;SDS011;26355;45.528;9.234;2023-04-03T04:02:28;18.65;;;7.95;;
40669;SDS011;26355;45.528;9.234;2023-04-03T04:04:53;21.05;;;8.68;;
40669;SDS011;26355;45.528;9.234;2023-04-03T04:07:19;18.80;;;8.30;;
40669;SDS011;26355;45.528;9.234;2023-04-03T04:09:45;18.23;;;9.07;;
40669;SDS011;26355;45.528;9.234;2023-04-03T04:12:10;20.33;;;8.13;;
40669;SDS011;26355;45.528;9.234;2023-04-03T04:14:36;18.17;;;7.88;;
40669;SDS011;26355;45.528;9.234;2023-04-03T04:17:02;18.63;;;7.90;;
40669;SDS011;26355;45.528;9.234;2023-04-03T04:19:27;19.00;;;7.88;;
40669;SDS011;26355;45.528;9.234;2023-04-03T04:21:53;20.83;;;8.27;;
40669;SDS011;26355;45.528;9.234;2023-04-03T04:24:19;18.98;;;8.20;;
40669;SDS011;26355;45.528;9.234;2023-04-03T04:26:44;18.30;;;8.05;;
40669;SDS011;26355;45.528;9.234;2023-04-03T04:29:10;19.13;;;7.50;;
40669;SDS011;26355;45.528;9.234;2023-04-03T04:31:36;18.00;;;7.75;;
40669;SDS011;26355;45.528;9.234;2023-04-03T04:34:01;24.15;;;8.88;;
40669;SDS011;26355;45.528;9.234;2023-04-03T04:36:27;17.55;;;7.85;;
40669;SDS011;26355;45.528;9.234;2023-04-03T04:38:53;19.13;;;7.93;;
40669;SDS011;26355;45.528;9.234;2023-04-03T04:41:19;21.92;;;9.75;;
40669;SDS011;26355;45.528;9.234;2023-04-03T04:43:47;23.80;;;10.70;;
40669;SDS011;26355;45.528;9.234;2023-04-03T04:46:13;20.58;;;8.80;;
40669;SDS011;26355;45.528;9.234;2023-04-03T04:48:39;20.30;;;9.23;;
40669;SDS011;26355;45.528;9.234;2023-04-03T04:51:05;18.70;;;8.25;;
40669;SDS011;26355;45.528;9.234;2023-04-03T04:53:31;21.00;;;8.82;;
40669;SDS011;26355;45.528;9.234;2023-04-03T04:55:57;18.35;;;8.35;;
40669;SDS011;26355;45.528;9.234;2023-04-03T04:58:22;18.55;;;8.10;;
40669;SDS011;26355;45.528;9.234;2023-04-03T05:00:48;19.60;;;8.60;;
40669;SDS011;26355;45.528;9.234;2023-04-03T05:03:14;18.25;;;7.82;;
40669;SDS011;26355;45.528;9.234;2023-04-03T05:05:40;22.60;;;9.63;;
40669;SDS011;26355;45.528;9.234;2023-04-03T05:08:05;20.20;;;9.30;;
40669;SDS011;26355;45.528;9.234;2023-04-03T05:10:33;21.95;;;9.15;;
40669;SDS011;26355;45.528;9.234;2023-04-03T05:12:58;20.63;;;8.77;;
40669;SDS011;26355;45.528;9.234;2023-04-03T05:15:24;22.42;;;9.25;;
40669;SDS011;26355;45.528;9.234;2023-04-03T05:17:50;20.55;;;9.07;;
40669;SDS011;26355;45.528;9.234;2023-04-03T05:20:16;20.17;;;8.98;;
40669;SDS011;26355;45.528;9.234;2023-04-03T05:22:42;21.73;;;8.90;;
40669;SDS011;26355;45.528;9.234;2023-04-03T05:25:07;18.88;;;8.73;;
40669;SDS011;26355;45.528;9.234;2023-04-03T05:27:33;19.77;;;8.88;;
40669;SDS011;26355;45.528;9.234;2023-04-03T05:29:59;20.27;;;8.65;;
40669;SDS011;26355;45.528;9.234;2023-04-03T05:32:24;22.00;;;8.88;;
40669;SDS011;26355;45.528;9.234;2023-04-03T05:34:52;20.48;;;8.73;;
40669;SDS011;26355;45.528;9.234;2023-04-03T05:37:18;20.48;;;9.95;;
40669;SDS011;26355;45.528;9.234;2023-04-03T05:39:44;24.40;;;10.55;;
40669;SDS011;26355;45.528;9.234;2023-04-03T05:42:09;22.77;;;9.45;;
40669;SDS011;26355;45.528;9.234;2023-04-03T05:44:36;22.60;;;10.38;;
40669;SDS011;26355;45.528;9.234;2023-04-03T05:47:02;19.65;;;8.90;;
40669;SDS011;26355;45.528;9.234;2023-04-03T05:49:28;23.77;;;8.73;;
40669;SDS011;26355;45.528;9.234;2023-04-03T05:51:53;23.48;;;9.30;;
40669;SDS011;26355;45.528;9.234;2023-04-03T05:54:20;20.02;;;8.43;;
40669;SDS011;26355;45.528;9.234;2023-04-03T05:56:49;19.85;;;8.18;;
40669;SDS011;26355;45.528;9.234;2023-04-03T05:59:16;21.45;;;8.90;;
40669;SDS011;26355;45.528;9.234;2023-04-03T06:01:42;21.77;;;8.47;;
40669;SDS011;26355;45.528;9.234;2023-04-03T06:04:08;20.98;;;9.40;;
40669;SDS011;26355;45.528;9.234;2023-04-03T06:06:50;23.42;;;9.75;;
40669;SDS011;26355;45.528;9.234;2023-04-03T06:09:22;20.17;;;9.25;;
40669;SDS011;26355;45.528;9.234;2023-04-03T06:11:50;22.98;;;10.82;;
40669;SDS011;26355;45.528;9.234;2023-04-03T06:14:16;21.10;;;8.90;;
40669;SDS011;26355;45.528;9.234;2023-04-03T06:16:42;21.85;;;9.68;;
40669;SDS011;26355;45.528;9.234;2023-04-03T06:19:08;25.05;;;10.15;;
40669;SDS011;26355;45.528;9.234;2023-04-03T06:21:35;22.45;;;8.73;;
40669;SDS011;26355;45.528;9.234;2023-04-03T06:24:01;23.40;;;10.30;;
40669;SDS011;26355;45.528;9.234;2023-04-03T06:26:28;24.88;;;9.68;;
40669;SDS011;26355;45.528;9.234;2023-04-03T06:28:54;19.63;;;7.28;;
40669;SDS011;26355;45.528;9.234;2023-04-03T06:31:19;16.17;;;6.00;;
40669;SDS011;26355;45.528;9.234;2023-04-03T06:33:45;14.98;;;5.97;;
40669;SDS011;26355;45.528;9.234;2023-04-03T06:36:11;17.73;;;5.72;;
40669;SDS011;26355;45.528;9.234;2023-04-03T06:38:37;16.85;;;5.60;;
40669;SDS011;26355;45.528;9.234;2023-04-03T06:41:02;18.40;;;6.10;;
40669;SDS011;26355;45.528;9.234;2023-04-03T06:43:28;15.80;;;5.68;;
40669;SDS011;26355;45.528;9.234;2023-04-03T06:45:56;19.90;;;7.07;;
40669;SDS011;26355;45.528;9.234;2023-04-03T06:48:21;16.35;;;6.28;;
40669;SDS011;26355;45.528;9.234;2023-04-03T06:50:47;18.75;;;6.10;;
40669;SDS011;26355;45.528;9.234;2023-04-03T06:53:12;18.75;;;6.20;;
40669;SDS011;26355;45.528;9.234;2023-04-03T06:55:38;15.43;;;6.00;;
40669;SDS011;26355;45.528;9.234;2023-04-03T06:58:04;17.30;;;6.38;;
40669;SDS011;26355;45.528;9.234;2023-04-03T07:00:30;15.38;;;5.88;;
40669;SDS011;26355;45.528;9.234;2023-04-03T07:02:56;18.17;;;6.15;;
40669;SDS011;26355;45.528;9.234;2023-04-03T07:05:22;17.38;;;6.18;;
40669;SDS011;26355;45.528;9.234;2023-04-03T07:07:48;15.95;;;5.90;;
40669;SDS011;26355;45.528;9.234;2023-04-03T07:10:15;17.67;;;6.47;;
40669;SDS011;26355;45.528;9.234;2023-04-03T07:12:41;16.10;;;5.85;;
40669;SDS011;26355;45.528;9.234;2023-04-03T07:15:07;19.70;;;6.45;;
40669;SDS011;26355;45.528;9.234;2023-04-03T07:17:33;18.98;;;7.13;;
40669;SDS011;26355;45.528;9.234;2023-04-03T07:19:59;18.40;;;6.47;;
40669;SDS011;26355;45.528;9.234;2023-04-03T07:22:24;19.00;;;6.72;;
40669;SDS011;26355;45.528;9.234;2023-04-03T07:24:50;18.02;;;7.22;;
40669;SDS011;26355;45.528;9.234;2023-04-03T07:27:16;16.13;;;6.03;;
40669;SDS011;26355;45.528;9.234;2023-04-03T07:29:42;15.55;;;5.82;;
40669;SDS011;26355;45.528;9.234;2023-04-03T07:32:09;15.30;;;4.97;;
40669;SDS011;26355;45.528;9.234;2023-04-03T07:34:35;16.13;;;4.97;;
40669;SDS011;26355;45.528;9.234;2023-04-03T07:37:02;18.55;;;5.50;;
40669;SDS011;26355;45.528;9.234;2023-04-03T07:39:28;16.15;;;6.05;;
40669;SDS011;26355;45.528;9.234;2023-04-03T07:41:54;15.48;;;5.65;;
40669;SDS011;26355;45.528;9.234;2023-04-03T07:44:21;17.00;;;5.93;;
40669;SDS011;26355;45.528;9.234;2023-04-03T07:46:46;17.08;;;6.03;;
40669;SDS011;26355;45.528;9.234;2023-04-03T07:49:13;17.33;;;6.15;;
40669;SDS011;26355;45.528;9.234;2023-04-03T07:51:39;13.70;;;5.13;;
40669;SDS011;26355;45.528;9.234;2023-04-03T07:54:05;12.63;;;4.53;;
40669;SDS011;26355;45.528;9.234;2023-04-03T07:56:31;15.73;;;4.95;;
40669;SDS011;26355;45.528;9.234;2023-04-03T07:58:57;15.05;;;5.32;;
40669;SDS011;26355;45.528;9.234;2023-04-03T08:01:22;14.60;;;5.03;;
40669;SDS011;26355;45.528;9.234;2023-04-03T08:03:48;15.63;;;4.72;;
40669;SDS011;26355;45.528;9.234;2023-04-03T08:06:13;12.50;;;4.35;;
40669;SDS011;26355;45.528;9.234;2023-04-03T08:08:40;12.40;;;4.20;;
40669;SDS011;26355;45.528;9.234;2023-04-03T08:11:06;13.20;;;3.83;;
40669;SDS011;26355;45.528;9.234;2023-04-03T08:13:33;12.43;;;4.38;;
40669;SDS011;26355;45.528;9.234;2023-04-03T08:18:36;13.75;;;4.20;;
40669;SDS011;26355;45.528;9.234;2023-04-03T08:21:04;12.45;;;3.83;;
40669;SDS011;26355;45.528;9.234;2023-04-03T08:23:31;10.75;;;4.00;;
40669;SDS011;26355;45.528;9.234;2023-04-03T08:25:56;12.43;;;4.03;;
40669;SDS011;26355;45.528;9.234;2023-04-03T08:28:22;13.45;;;4.40;;
40669;SDS011;26355;45.528;9.234;2023-04-03T08:30:47;10.63;;;3.97;;
40669;SDS011;26355;45.528;9.234;2023-04-03T08:33:13;14.05;;;4.63;;
40669;SDS011;26355;45.528;9.234;2023-04-03T08:35:39;16.33;;;4.72;;
40669;SDS011;26355;45.528;9.234;2023-04-03T08:38:05;13.25;;;4.35;;
40669;SDS011;26355;45.528;9.234;2023-04-03T08:40:31;13.93;;;4.65;;
40669;SDS011;26355;45.528;9.234;2023-04-03T08:43:01;13.48;;;5.05;;
40669;SDS011;26355;45.528;9.234;2023-04-03T08:45:50;14.77;;;4.85;;
40669;SDS011;26355;45.528;9.234;2023-04-03T08:48:23;15.82;;;5.13;;
40669;SDS011;26355;45.528;9.234;2023-04-03T08:50:55;12.50;;;4.13;;
40669;SDS011;26355;45.528;9.234;2023-04-03T08:53:28;11.98;;;4.35;;
40669;SDS011;26355;45.528;9.234;2023-04-03T08:55:57;15.95;;;5.20;;
40669;SDS011;26355;45.528;9.234;2023-04-03T08:58:30;14.97;;;4.23;;
40669;SDS011;26355;45.528;9.234;2023-04-03T09:01:05;14.60;;;4.70;;
40669;SDS011;26355;45.528;9.234;2023-04-03T09:03:43;13.20;;;4.50;;
40669;SDS011;26355;45.528;9.234;2023-04-03T09:06:17;14.65;;;4.93;;
40669;SDS011;26355;45.528;9.234;2023-04-03T09:14:42;14.88;;;5.15;;
40669;SDS011;26355;45.528;9.234;2023-04-03T09:17:34;15.55;;;5.78;;
40669;SDS011;26355;45.528;9.234;2023-04-03T09:22:46;13.98;;;5.30;;
40669;SDS011;26355;45.528;9.234;2023-04-03T09:25:14;14.63;;;5.13;;
40669;SDS011;26355;45.528;9.234;2023-04-03T09:27:43;16.52;;;5.47;;
40669;SDS011;26355;45.528;9.234;2023-04-03T09:30:12;15.07;;;5.13;;
40669;SDS011;26355;45.528;9.234;2023-04-03T09:32:46;16.02;;;4.85;;
40669;SDS011;26355;45.528;9.234;2023-04-03T09:35:17;22.42;;;4.93;;
40669;SDS011;26355;45.528;9.234;2023-04-03T09:37:50;15.07;;;4.32;;
40669;SDS011;26355;45.528;9.234;2023-04-03T09:40:34;15.27;;;4.63;;
40669;SDS011;26355;45.528;9.234;2023-04-03T09:43:27;13.80;;;5.00;;
40669;SDS011;26355;45.528;9.234;2023-04-03T09:45:55;14.02;;;4.60;;
40669;SDS011;26355;45.528;9.234;2023-04-03T09:48:49;16.15;;;4.40;;
40669;SDS011;26355;45.528;9.234;2023-04-03T09:51:26;18.38;;;4.10;;
40669;SDS011;26355;45.528;9.234;2023-04-03T09:53:53;15.73;;;4.53;;
40669;SDS011;26355;45.528;9.234;2023-04-03T09:56:20;12.52;;;4.38;;
40669;SDS011;26355;45.528;9.234;2023-04-03T09:58:52;11.73;;;3.85;;
40669;SDS011;26355;45.528;9.234;2023-04-03T10:01:41;11.65;;;4.15;;
40669;SDS011;26355;45.528;9.234;2023-04-03T10:04:20;18.13;;;4.32;;
40669;SDS011;26355;45.528;9.234;2023-04-03T10:06:51;11.15;;;3.67;;
40669;SDS011;26355;45.528;9.234;2023-04-03T10:09:31;12.65;;;4.10;;
40669;SDS011;26355;45.528;9.234;2023-04-03T10:12:08;11.30;;;3.88;;
40669;SDS011;26355;45.528;9.234;2023-04-03T10:14:40;14.55;;;4.60;;
40669;SDS011;26355;45.528;9.234;2023-04-03T10:17:26;11.10;;;3.50;;
40669;SDS011;26355;45.528;9.234;2023-04-03T10:20:07;14.07;;;4.00;;
40669;SDS011;26355;45.528;9.234;2023-04-03T10:37:09;10.60;;;3.50;;
40669;SDS011;26355;45.528;9.234;2023-04-03T10:39:39;11.70;;;3.78;;
40669;SDS011;26355;45.528;9.234;2023-04-03T10:42:21;10.32;;;3.42;;
40669;SDS011;26355;45.528;9.234;2023-04-03T10:47:24;12.60;;;4.00;;
40669;SDS011;26355;45.528;9.234;2023-04-03T10:50:29;12.80;;;4.20;;
40669;SDS011;26355;45.528;9.234;2023-04-03T10:55:34;8.50;;;2.70;;
40669;SDS011;26355;45.528;9.234;2023-04-03T10:58:01;11.00;;;3.47;;
40669;SDS011;26355;45.528;9.234;2023-04-03T11:00:50;8.07;;;2.83;;
40669;SDS011;26355;45.528;9.234;2023-04-03T11:05:45;8.63;;;2.92;;
40669;SDS011;26355;45.528;9.234;2023-04-03T11:11:00;9.50;;;3.53;;
40669;SDS011;26355;45.528;9.234;2023-04-03T11:16:07;11.02;;;3.47;;
40669;SDS011;26355;45.528;9.234;2023-04-03T11:18:41;13.07;;;3.78;;
40669;SDS011;26355;45.528;9.234;2023-04-03T11:21:19;11.82;;;3.33;;
40669;SDS011;26355;45.528;9.234;2023-04-03T11:23:47;9.23;;;3.20;;
40669;SDS011;26355;45.528;9.234;2023-04-03T11:26:18;8.13;;;2.93;;
40669;SDS011;26355;45.528;9.234;2023-04-03T11:28:46;10.23;;;3.03;;
40669;SDS011;26355;45.528;9.234;2023-04-03T11:33:56;6.15;;;2.42;;
40669;SDS011;26355;45.528;9.234;2023-04-03T11:36:34;8.20;;;3.00;;
40669;SDS011;26355;45.528;9.234;2023-04-03T11:47:58;12.45;;;3.50;;
40669;SDS011;26355;45.528;9.234;2023-04-03T11:50:30;12.88;;;3.10;;
40669;SDS011;26355;45.528;9.234;2023-04-03T11:53:25;11.70;;;3.40;;
40669;SDS011;26355;45.528;9.234;2023-04-03T12:00:59;12.55;;;3.50;;
40669;SDS011;26355;45.528;9.234;2023-04-03T12:09:01;11.80;;;3.05;;
40669;SDS011;26355;45.528;9.234;2023-04-03T12:11:46;11.00;;;3.08;;
40669;SDS011;26355;45.528;9.234;2023-04-03T12:14:14;8.88;;;2.90;;
40669;SDS011;26355;45.528;9.234;2023-04-03T12:16:42;6.82;;;2.75;;
40669;SDS011;26355;45.528;9.234;2023-04-03T12:26:50;8.55;;;2.80;;
40669;SDS011;26355;45.528;9.234;2023-04-03T12:29:33;8.82;;;2.80;;
40669;SDS011;26355;45.528;9.234;2023-04-03T12:45:50;9.25;;;2.70;;
40669;SDS011;26355;45.528;9.234;2023-04-03T12:48:25;7.22;;;2.60;;
40669;SDS011;26355;45.528;9.234;2023-04-03T12:50:53;9.60;;;2.67;;
40669;SDS011;26355;45.528;9.234;2023-04-03T12:53:21;4.72;;;2.30;;
40669;SDS011;26355;45.528;9.234;2023-04-03T12:55:57;10.65;;;2.97;;
40669;SDS011;26355;45.528;9.234;2023-04-03T12:58:51;8.23;;;2.95;;
40669;SDS011;26355;45.528;9.234;2023-04-03T13:01:25;7.07;;;2.33;;
40669;SDS011;26355;45.528;9.234;2023-04-03T13:03:55;5.70;;;2.35;;
40669;SDS011;26355;45.528;9.234;2023-04-03T13:06:23;6.82;;;2.33;;
40669;SDS011;26355;45.528;9.234;2023-04-03T13:08:52;7.32;;;2.38;;
40669;SDS011;26355;45.528;9.234;2023-04-03T13:11:22;9.45;;;2.53;;
40669;SDS011;26355;45.528;9.234;2023-04-03T13:16:24;7.35;;;2.67;;
40669;SDS011;26355;45.528;9.234;2023-04-03T13:18:52;8.30;;;2.80;;
40669;SDS011;26355;45.528;9.234;2023-04-03T13:21:37;7.25;;;2.50;;
40669;SDS011;26355;45.528;9.234;2023-04-03T13:24:02;4.68;;;2.20;;
40669;SDS011;26355;45.528;9.234;2023-04-03T13:26:30;8.38;;;2.60;;
40669;SDS011;26355;45.528;9.234;2023-04-03T13:29:07;6.88;;;2.53;;
40669;SDS011;26355;45.528;9.234;2023-04-03T13:31:47;8.45;;;2.83;;
40669;SDS011;26355;45.528;9.234;2023-04-03T13:34:19;8.63;;;2.60;;
40669;SDS011;26355;45.528;9.234;2023-04-03T13:41:45;7.30;;;2.83;;
40669;SDS011;26355;45.528;9.234;2023-04-03T13:47:01;7.72;;;2.53;;
40669;SDS011;26355;45.528;9.234;2023-04-03T13:49:43;6.82;;;2.60;;
40669;SDS011;26355;45.528;9.234;2023-04-03T13:54:46;9.13;;;2.80;;
40669;SDS011;26355;45.528;9.234;2023-04-03T13:57:16;9.85;;;2.95;;
40669;SDS011;26355;45.528;9.234;2023-04-03T13:59:42;7.72;;;2.40;;
40669;SDS011;26355;45.528;9.234;2023-04-03T14:07:02;7.38;;;2.40;;
40669;SDS011;26355;45.528;9.234;2023-04-03T14:09:28;7.63;;;2.40;;
40669;SDS011;26355;45.528;9.234;2023-04-03T14:11:58;8.55;;;2.70;;
40669;SDS011;26355;45.528;9.234;2023-04-03T14:14:30;8.07;;;2.50;;
40669;SDS011;26355;45.528;9.234;2023-04-03T14:16:59;9.05;;;2.63;;
40669;SDS011;26355;45.528;9.234;2023-04-03T14:19:33;7.93;;;2.58;;
40669;SDS011;26355;45.528;9.234;2023-04-03T14:22:01;4.97;;;2.20;;
40669;SDS011;26355;45.528;9.234;2023-04-03T14:24:37;8.90;;;2.75;;
40669;SDS011;26355;45.528;9.234;2023-04-03T14:27:05;5.53;;;2.40;;
40669;SDS011;26355;45.528;9.234;2023-04-03T14:29:40;4.97;;;2.17;;
40669;SDS011;26355;45.528;9.234;2023-04-03T14:32:06;8.60;;;2.85;;
40669;SDS011;26355;45.528;9.234;2023-04-03T14:34:32;8.38;;;2.60;;
40669;SDS011;26355;45.528;9.234;2023-04-03T14:36:57;9.02;;;2.45;;
40669;SDS011;26355;45.528;9.234;2023-04-03T14:39:23;6.43;;;2.00;;
40669;SDS011;26355;45.528;9.234;2023-04-03T14:41:49;9.43;;;2.45;;
40669;SDS011;26355;45.528;9.234;2023-04-03T14:44:14;9.10;;;2.60;;
40669;SDS011;26355;45.528;9.234;2023-04-03T14:46:41;10.40;;;3.10;;
40669;SDS011;26355;45.528;9.234;2023-04-03T14:49:12;5.20;;;2.15;;
40669;SDS011;26355;45.528;9.234;2023-04-03T14:51:45;5.45;;;2.20;;
40669;SDS011;26355;45.528;9.234;2023-04-03T14:54:13;11.30;;;2.50;;
40669;SDS011;26355;45.528;9.234;2023-04-03T14:56:40;9.27;;;2.35;;
40669;SDS011;26355;45.528;9.234;2023-04-03T14:59:08;9.90;;;2.40;;
40669;SDS011;26355;45.528;9.234;2023-04-03T15:01:36;10.73;;;2.65;;
40669;SDS011;26355;45.528;9.234;2023-04-03T15:04:04;11.60;;;2.72;;
40669;SDS011;26355;45.528;9.234;2023-04-03T15:06:35;8.05;;;2.50;;
40669;SDS011;26355;45.528;9.234;2023-04-03T15:09:01;10.45;;;3.13;;
40669;SDS011;26355;45.528;9.234;2023-04-03T15:11:28;10.77;;;2.70;;
40669;SDS011;26355;45.528;9.234;2023-04-03T15:13:54;11.68;;;3.78;;
40669;SDS011;26355;45.528;9.234;2023-04-03T15:16:19;10.25;;;3.25;;
40669;SDS011;26355;45.528;9.234;2023-04-03T15:18:46;9.90;;;2.75;;
40669;SDS011;26355;45.528;9.234;2023-04-03T15:21:13;11.43;;;3.22;;
40669;SDS011;26355;45.528;9.234;2023-04-03T15:23:39;10.07;;;3.17;;
40669;SDS011;26355;45.528;9.234;2023-04-03T15:26:05;9.38;;;2.75;;
40669;SDS011;26355;45.528;9.234;2023-04-03T15:28:33;11.57;;;3.15;;
40669;SDS011;26355;45.528;9.234;2023-04-03T15:31:01;10.05;;;3.05;;
40669;SDS011;26355;45.528;9.234;2023-04-03T15:33:27;13.70;;;3.58;;
40669;SDS011;26355;45.528;9.234;2023-04-03T15:35:53;10.38;;;2.90;;
40669;SDS011;26355;45.528;9.234;2023-04-03T15:38:19;10.65;;;3.30;;
40669;SDS011;26355;45.528;9.234;2023-04-03T15:40:45;9.88;;;3.15;;
40669;SDS011;26355;45.528;9.234;2023-04-03T15:43:12;11.95;;;2.85;;
40669;SDS011;26355;45.528;9.234;2023-04-03T15:45:38;12.88;;;2.70;;
40669;SDS011;26355;45.528;9.234;2023-04-03T15:48:04;10.23;;;2.78;;
40669;SDS011;26355;45.528;9.234;2023-04-03T15:50:31;9.18;;;2.60;;
40669;SDS011;26355;45.528;9.234;2023-04-03T15:52:58;10.40;;;2.97;;
40669;SDS011;26355;45.528;9.234;2023-04-03T15:55:24;9.82;;;2.90;;
40669;SDS011;26355;45.528;9.234;2023-04-03T15:57:51;8.00;;;2.70;;
40669;SDS011;26355;45.528;9.234;2023-04-03T16:00:18;11.18;;;3.08;;
40669;SDS011;26355;45.528;9.234;2023-04-03T16:02:45;11.57;;;2.88;;
40669;SDS011;26355;45.528;9.234;2023-04-03T16:05:12;13.48;;;3.20;;
40669;SDS011;26355;45.528;9.234;2023-04-03T16:07:38;9.82;;;2.50;;
40669;SDS011;26355;45.528;9.234;2023-04-03T16:10:05;7.32;;;2.30;;
40669;SDS011;26355;45.528;9.234;2023-04-03T16:12:32;15.63;;;3.70;;
40669;SDS011;26355;45.528;9.234;2023-04-03T16:14:58;12.48;;;3.22;;
40669;SDS011;26355;45.528;9.234;2023-04-03T16:17:23;11.18;;;3.08;;
40669;SDS011;26355;45.528;9.234;2023-04-03T16:19:51;11.88;;;3.10;;
40669;SDS011;26355;45.528;9.234;2023-04-03T16:22:16;11.63;;;2.60;;
40669;SDS011;26355;45.528;9.234;2023-04-03T16:24:42;10.35;;;2.80;;
40669;SDS011;26355;45.528;9.234;2023-04-03T16:27:08;10.32;;;2.92;;
40669;SDS011;26355;45.528;9.234;2023-04-03T16:29:33;8.27;;;2.78;;
40669;SDS011;26355;45.528;9.234;2023-04-03T16:31:59;12.90;;;3.05;;
40669;SDS011;26355;45.528;9.234;2023-04-03T16:34:25;14.30;;;2.90;;
40669;SDS011;26355;45.528;9.234;2023-04-03T16:36:51;11.98;;;3.40;;